createdAt,value
2018-01-12T13:14:55.172Z,18.57
2018-01-12T13:35:55.251Z,20.56
2018-01-12T13:36:55.067Z,20.59
2018-01-12T13:37:55.070Z,20.63
2018-01-12T13:38:55.068Z,20.69
2018-01-12T13:39:55.069Z,20.74
2018-01-12T13:40:55.071Z,20.79
2018-01-12T13:41:55.406Z,20.84
2018-01-12T13:42:55.076Z,20.88
2018-01-12T13:43:55.074Z,20.94
2018-01-12T13:44:55.073Z,20.97
2018-01-12T13:45:55.077Z,20.99
2018-01-12T13:46:55.075Z,21.03
2018-01-12T13:47:55.111Z,21.05
2018-01-12T13:48:55.077Z,21.07
2018-01-12T13:49:55.077Z,21.11
2018-01-12T13:50:55.079Z,21.13
2018-01-12T13:51:55.086Z,21.13
2018-01-12T13:52:55.082Z,21.14
2018-01-12T13:53:55.260Z,21.13
2018-01-12T13:54:55.084Z,21.13
2018-01-12T13:55:55.082Z,21.12
2018-01-12T13:56:55.083Z,21.12
2018-01-12T13:57:55.085Z,21.12
2018-01-12T13:58:55.087Z,21.13
2018-01-12T13:59:55.114Z,21.14
2018-01-12T14:00:55.113Z,21.17
2018-01-12T14:01:55.085Z,21.19
2018-01-12T14:02:55.161Z,21.22
2018-01-12T14:03:55.088Z,21.24
2018-01-12T14:04:55.096Z,21.23
2018-01-12T14:05:55.497Z,21.27
2018-01-12T14:06:55.091Z,21.26
2018-01-12T14:07:55.093Z,21.27
2018-01-12T14:08:55.095Z,21.29
2018-01-12T14:09:55.104Z,21.3
2018-01-12T14:10:55.093Z,21.31
2018-01-12T14:11:55.122Z,21.3
2018-01-12T14:12:55.095Z,21.31
2018-01-12T14:13:55.094Z,21.33
2018-01-12T14:14:55.099Z,21.34
2018-01-12T14:15:55.100Z,21.34
2018-01-12T14:16:55.127Z,21.35
2018-01-12T14:17:55.101Z,21.36
2018-01-12T14:18:55.100Z,21.36
2018-01-12T14:19:55.100Z,21.36
2018-01-12T14:20:55.103Z,21.38
2018-01-12T14:21:55.131Z,21.38
2018-01-12T14:22:55.111Z,21.38
2018-01-12T14:23:55.105Z,21.38
2018-01-12T14:24:55.104Z,21.37
2018-01-12T14:25:55.110Z,21.39
2018-01-12T14:26:55.136Z,21.4
2018-01-12T14:27:55.109Z,21.41
2018-01-12T14:28:55.107Z,21.39
2018-01-12T14:29:55.115Z,21.39
2018-01-12T14:30:55.113Z,21.42
2018-01-12T14:31:55.141Z,21.46
2018-01-12T14:32:55.112Z,21.47
2018-01-12T14:33:55.113Z,21.48
2018-01-12T14:34:55.114Z,21.5
2018-01-12T14:35:55.116Z,21.53
2018-01-12T14:36:55.139Z,21.51
2018-01-12T14:37:55.115Z,21.5
2018-01-12T14:38:55.117Z,21.51
2018-01-12T14:39:55.118Z,21.54
2018-01-12T14:40:55.128Z,21.54
2018-01-12T14:41:55.304Z,21.61
2018-01-12T14:42:55.125Z,21.67
2018-01-12T14:43:55.120Z,21.72
2018-01-12T14:44:55.125Z,21.75
2018-01-12T14:45:55.119Z,21.78
2018-01-12T14:46:55.123Z,21.79
2018-01-12T14:47:55.315Z,21.82
2018-01-12T14:48:55.124Z,21.82
2018-01-12T14:49:55.125Z,21.84
2018-01-12T14:50:55.127Z,21.84
2018-01-12T14:51:55.156Z,21.84
2018-01-12T14:52:55.127Z,21.87
2018-01-12T14:53:55.129Z,21.89
2018-01-12T14:54:55.129Z,21.9
2018-01-12T14:55:55.129Z,21.9
2018-01-12T14:56:55.158Z,21.92
2018-01-12T14:57:55.132Z,21.87
2018-01-12T14:58:55.132Z,21.88
2018-01-12T14:59:55.130Z,21.89
2018-01-12T15:00:55.133Z,21.9
2018-01-12T15:01:55.163Z,21.91
2018-01-12T15:02:55.160Z,21.91
2018-01-12T15:03:55.141Z,21.91
2018-01-12T15:04:55.140Z,21.92
2018-01-12T15:05:55.137Z,21.94
2018-01-12T15:06:55.140Z,21.94
2018-01-12T15:07:55.162Z,21.95
2018-01-12T15:08:55.139Z,21.96
2018-01-12T15:09:55.140Z,21.96
2018-01-12T15:10:55.145Z,21.96
2018-01-12T15:11:55.146Z,21.98
2018-01-12T15:12:55.174Z,22
2018-01-12T15:13:55.143Z,22.02
2018-01-12T15:14:55.418Z,22.03
2018-01-12T15:15:55.148Z,22.03
2018-01-12T15:16:55.149Z,22.04
2018-01-12T15:17:55.266Z,22.05
2018-01-12T15:18:55.196Z,22.04
2018-01-12T15:19:55.223Z,22.04
2018-01-12T15:20:55.154Z,22.02
2018-01-12T15:21:55.151Z,22.03
2018-01-12T15:22:55.178Z,22.02
2018-01-12T15:23:55.153Z,22.03
2018-01-12T15:24:55.158Z,22.03
2018-01-12T15:25:55.153Z,22.03
2018-01-12T15:26:55.155Z,22.03
2018-01-12T15:27:55.184Z,22.03
2018-01-12T15:28:55.156Z,22.03
2018-01-12T15:29:55.157Z,22.06
2018-01-12T15:30:55.154Z,22.08
2018-01-12T15:33:07.276Z,22.07
2018-01-12T15:34:07.272Z,22.08
2018-01-12T15:35:07.243Z,22.11
2018-01-12T15:36:07.243Z,22.12
2018-01-12T15:37:07.244Z,22.12
2018-01-12T15:38:07.271Z,22.12
2018-01-12T15:39:07.247Z,22.13
2018-01-12T15:40:07.253Z,22.15
2018-01-12T15:41:07.251Z,22.17
2018-01-12T15:42:07.246Z,22.18
2018-01-12T15:43:07.291Z,22.2
2018-01-12T15:44:07.252Z,22.21
2018-01-12T15:45:07.253Z,22.22
2018-01-12T15:46:07.258Z,22.23
2018-01-12T15:47:07.250Z,22.23
2018-01-12T15:48:07.259Z,22.23
2018-01-12T15:49:07.285Z,22.24
2018-01-12T15:50:07.254Z,22.24
2018-01-12T15:51:07.255Z,22.26
2018-01-12T15:52:07.259Z,22.28
2018-01-12T15:53:07.284Z,22.31
2018-01-12T15:54:07.268Z,22.32
2018-01-12T15:55:07.260Z,22.34
2018-01-12T17:57:06.010Z,20.22
2018-01-12T17:58:05.969Z,20.38
2018-01-12T17:59:05.971Z,20.61
2018-01-12T18:00:05.967Z,20.87
2018-01-12T18:01:05.971Z,21.15
2018-01-12T18:02:05.995Z,21.41
2018-01-12T18:03:05.972Z,21.62
2018-01-12T18:04:05.972Z,21.78
2018-01-12T18:05:05.974Z,21.9
2018-01-12T18:06:05.971Z,21.99
2018-01-12T18:07:06.018Z,22.12
2018-01-12T18:08:05.971Z,22.25
2018-01-12T18:09:05.978Z,22.31
2018-01-12T18:10:05.974Z,22.35
2018-01-12T18:11:05.978Z,22.41
2018-01-12T18:12:05.979Z,22.45
2018-01-12T18:13:06.099Z,22.53
2018-01-12T18:14:05.976Z,22.58
2018-01-12T18:15:05.981Z,22.59
2018-01-12T18:16:05.981Z,22.62
2018-01-12T18:17:05.982Z,22.67
2018-01-12T18:18:05.983Z,22.7
2018-01-12T18:19:06.013Z,22.74
2018-01-12T18:20:05.998Z,22.77
2018-01-12T18:21:05.983Z,22.78
2018-01-12T18:22:05.985Z,22.78
2018-01-12T18:23:05.994Z,22.74
2018-01-12T18:24:05.990Z,22.75
2018-01-12T18:25:05.989Z,22.8
2018-01-12T18:26:05.986Z,22.85
2018-01-12T18:27:05.988Z,22.87
2018-01-12T18:28:05.990Z,22.89
2018-01-12T18:29:05.992Z,22.9
2018-01-12T18:30:06.022Z,22.92
2018-01-12T18:31:05.993Z,22.93
2018-01-12T18:32:05.989Z,22.92
2018-01-12T18:33:05.994Z,22.94
2018-01-12T18:34:05.995Z,22.97
2018-01-12T18:35:05.997Z,22.98
2018-01-12T18:36:06.357Z,22.97
2018-01-12T18:37:05.995Z,22.96
2018-01-12T18:38:05.996Z,22.96
2018-01-12T18:39:05.996Z,22.96
2018-01-12T18:40:06.002Z,22.99
2018-01-12T18:41:06.001Z,23
2018-01-12T18:42:06.029Z,23.02
2018-01-12T18:43:06.003Z,23.04
2018-01-12T18:44:06.001Z,23.04
2018-01-12T18:45:06.000Z,23.04
2018-01-12T18:46:06.011Z,23.03
2018-01-12T18:47:06.031Z,22.93
2018-01-12T18:48:06.008Z,22.87
2018-01-12T18:49:06.003Z,22.78
2018-01-12T18:50:06.004Z,22.73
2018-01-12T18:51:06.007Z,22.7
2018-01-12T18:52:06.045Z,22.66
2018-01-12T18:53:06.010Z,22.63
2018-01-12T18:54:06.013Z,22.59
2018-01-12T18:55:06.106Z,22.57
2018-01-12T18:56:06.012Z,22.54
2018-01-12T18:57:06.016Z,22.49
2018-01-12T18:58:06.040Z,22.47
2018-01-12T18:59:06.016Z,22.46
2018-01-12T19:00:06.014Z,22.43
2018-01-12T19:01:06.012Z,22.41
2018-01-12T19:02:06.014Z,22.37
2018-01-12T19:03:06.044Z,22.33
2018-01-12T19:04:06.020Z,22.28
2018-01-12T19:05:06.027Z,22.29
2018-01-12T19:06:06.018Z,22.26
2018-01-12T19:07:06.018Z,22.23
2018-01-12T19:08:06.056Z,22.27
2018-01-12T19:09:06.019Z,22.28
2018-01-12T19:10:06.029Z,22.36
2018-01-12T19:11:06.023Z,22.46
2018-01-12T19:12:06.022Z,22.58
2018-01-12T19:13:06.024Z,22.6
2018-01-12T19:14:06.060Z,22.63
